createdAt,value
2018-04-18T00:01:27.480Z,61.50
2018-04-18T00:03:54.978Z,60.10
2018-04-18T00:06:22.425Z,59.50
2018-04-18T00:08:49.982Z,61.30
2018-04-18T00:11:17.444Z,60.10
2018-04-18T00:13:44.897Z,62.70
2018-04-18T00:16:12.367Z,62.00
2018-04-18T00:18:39.827Z,62.30
2018-04-18T00:21:07.282Z,61.30
2018-04-18T00:23:34.729Z,62.30
2018-04-18T00:26:02.222Z,63.00
2018-04-18T00:28:29.682Z,63.20
2018-04-18T00:30:57.139Z,60.90
2018-04-18T00:33:24.598Z,61.50
2018-04-18T00:35:52.061Z,63.40
2018-04-18T00:38:19.631Z,61.60
2018-04-18T00:40:47.110Z,62.40
2018-04-18T00:43:14.566Z,62.00
2018-04-18T00:45:42.042Z,62.20
2018-04-18T00:48:09.663Z,63.00
2018-04-18T00:50:37.509Z,63.10
2018-04-18T00:53:05.130Z,63.20
2018-04-18T00:55:32.580Z,63.10
2018-04-18T00:58:00.031Z,63.10
2018-04-18T01:00:28.357Z,62.70
2018-04-18T01:02:55.849Z,62.10
2018-04-18T01:05:23.811Z,62.50
2018-04-18T01:07:51.329Z,62.80
2018-04-18T01:10:18.796Z,62.60
2018-04-18T01:12:46.259Z,63.10
2018-04-18T01:15:13.700Z,62.70
2018-04-18T01:17:41.362Z,62.30
2018-04-18T01:20:08.845Z,65.00
2018-04-18T01:22:36.307Z,65.50
2018-04-18T01:25:03.780Z,67.00
2018-04-18T01:27:31.213Z,65.00
2018-04-18T01:29:58.699Z,64.80
2018-04-18T01:32:26.161Z,65.40
2018-04-18T01:34:53.726Z,64.00
2018-04-18T01:37:21.169Z,64.30
2018-04-18T01:39:48.728Z,65.00
2018-04-18T01:42:16.190Z,65.10
2018-04-18T01:44:45.185Z,65.00
2018-04-18T01:47:12.651Z,66.10
2018-04-18T01:49:40.102Z,65.80
2018-04-18T01:52:07.602Z,65.90
2018-04-18T01:54:35.050Z,65.50
2018-04-18T01:57:02.527Z,65.10
2018-04-18T01:59:29.990Z,65.00
2018-04-18T02:01:57.430Z,65.50
2018-04-18T02:04:24.914Z,66.90
2018-04-18T02:06:52.393Z,64.60
2018-04-18T02:09:19.859Z,65.10
2018-04-18T02:11:47.296Z,64.60
2018-04-18T02:14:14.763Z,65.90
2018-04-18T02:16:42.214Z,63.70
2018-04-18T02:19:09.690Z,63.90
2018-04-18T02:21:37.163Z,64.50
2018-04-18T02:24:04.605Z,66.40
2018-04-18T02:26:32.070Z,65.00
2018-04-18T02:28:59.570Z,64.70
2018-04-18T02:31:29.370Z,64.80
2018-04-18T02:33:56.835Z,64.80
2018-04-18T02:36:24.303Z,66.70
2018-04-18T02:38:51.742Z,66.50
2018-04-18T02:41:19.199Z,65.00
2018-04-18T02:43:46.657Z,64.10
2018-04-18T02:46:14.117Z,66.20
2018-04-18T02:48:41.577Z,65.20
2018-04-18T02:51:09.014Z,66.00
2018-04-18T02:53:36.484Z,65.40
2018-04-18T02:56:03.946Z,64.70
2018-04-18T02:58:31.421Z,64.30
2018-04-18T03:00:58.914Z,65.20
2018-04-18T03:03:26.363Z,65.80
2018-04-18T03:05:53.925Z,66.00
2018-04-18T03:08:21.414Z,66.40
2018-04-18T03:10:49.578Z,64.90
2018-04-18T03:13:17.136Z,65.00
2018-04-18T03:15:44.695Z,65.70
2018-04-18T03:18:12.142Z,65.50
2018-04-18T03:20:41.440Z,66.90
2018-04-18T03:23:08.929Z,68.20
2018-04-18T03:25:36.406Z,68.90
2018-04-18T03:28:03.846Z,66.50
2018-04-18T03:30:31.394Z,66.10
2018-04-18T03:32:58.858Z,67.10
2018-04-18T03:35:27.806Z,67.70
2018-04-18T03:37:55.437Z,67.80
2018-04-18T03:40:22.879Z,66.00
2018-04-18T03:42:50.332Z,65.70
2018-04-18T03:45:17.844Z,65.80
2018-04-18T03:47:45.304Z,66.00
2018-04-18T03:50:12.753Z,66.30
2018-04-18T03:52:40.321Z,67.40
2018-04-18T03:55:07.793Z,67.30
2018-04-18T03:57:35.274Z,68.20
2018-04-18T04:00:02.727Z,68.30
2018-04-18T04:02:30.177Z,67.40
2018-04-18T04:04:57.737Z,67.60
2018-04-18T04:07:25.522Z,67.80
2018-04-18T04:09:52.966Z,68.50
2018-04-18T04:12:21.331Z,69.70
2018-04-18T04:14:48.926Z,68.30
2018-04-18T04:17:28.291Z,68.30
2018-04-18T04:20:07.781Z,69.70
2018-04-18T04:22:47.335Z,69.20
2018-04-18T04:25:15.634Z,68.20
2018-04-18T04:27:43.080Z,70.40
2018-04-18T04:30:10.539Z,68.10
2018-04-18T04:32:37.981Z,68.10
2018-04-18T04:35:05.710Z,68.30
2018-04-18T04:37:33.922Z,68.10
2018-04-18T04:40:01.383Z,68.00
2018-04-18T04:42:30.197Z,70.40
2018-04-18T04:44:57.687Z,70.80
2018-04-18T04:47:25.095Z,69.00
2018-04-18T04:49:52.763Z,68.50
2018-04-18T04:52:20.960Z,69.10
2018-04-18T04:54:48.434Z,69.10
2018-04-18T04:57:15.894Z,69.30
2018-04-18T04:59:45.087Z,70.40
2018-04-18T05:02:12.565Z,71.20
2018-04-18T05:04:40.018Z,69.10
2018-04-18T05:07:07.481Z,68.60
2018-04-18T05:09:36.148Z,68.10
2018-04-18T05:12:03.637Z,69.20
2018-04-18T05:14:31.081Z,68.30
2018-04-18T05:16:58.673Z,69.50
2018-04-18T05:19:26.121Z,70.60
2018-04-18T05:21:53.573Z,69.80
2018-04-18T05:24:21.037Z,70.10
2018-04-18T05:26:48.501Z,70.90
2018-04-18T05:29:15.953Z,71.30
2018-04-18T05:31:43.438Z,72.00
2018-04-18T05:34:10.903Z,71.60
2018-04-18T05:36:38.358Z,70.20
2018-04-18T05:39:05.831Z,71.40
2018-04-18T05:41:33.291Z,71.70
2018-04-18T05:44:00.757Z,72.10
2018-04-18T05:46:28.217Z,72.00
2018-04-18T05:48:55.669Z,72.60
2018-04-18T05:51:23.148Z,71.60
2018-04-18T05:53:50.617Z,70.00
2018-04-18T05:56:18.066Z,69.00
2018-04-18T05:58:45.506Z,70.40
2018-04-18T06:01:13.064Z,68.20
2018-04-18T06:03:40.552Z,67.80
2018-04-18T06:06:08.023Z,69.00
2018-04-18T06:08:35.574Z,66.30
2018-04-18T06:11:03.141Z,66.80
2018-04-18T06:13:30.590Z,67.70
2018-04-18T06:15:58.149Z,66.60
2018-04-18T06:18:25.637Z,64.50
2018-04-18T06:20:53.106Z,65.30
2018-04-18T06:23:20.573Z,65.80
2018-04-18T06:25:48.031Z,65.80
2018-04-18T06:28:15.487Z,66.20
2018-04-18T06:30:42.956Z,65.50
2018-04-18T06:33:10.430Z,65.60
2018-04-18T06:35:37.896Z,66.50
2018-04-18T06:38:05.366Z,65.20
2018-04-18T06:40:32.834Z,65.60
2018-04-18T06:43:00.270Z,64.70
2018-04-18T06:45:27.734Z,65.00
2018-04-18T06:47:55.178Z,64.80
2018-04-18T06:50:22.637Z,63.70
2018-04-18T06:52:50.086Z,65.30
2018-04-18T06:55:17.570Z,64.20
2018-04-18T06:57:45.044Z,65.00
2018-04-18T07:00:12.598Z,64.60
2018-04-18T07:02:40.140Z,63.30
2018-04-18T07:05:07.581Z,63.20
2018-04-18T07:07:35.819Z,61.40
2018-04-18T07:10:03.279Z,61.30
2018-04-18T07:12:30.734Z,61.50
2018-04-18T07:14:58.204Z,61.30
2018-04-18T07:17:25.667Z,60.10
2018-04-18T07:19:53.230Z,60.60
2018-04-18T07:22:20.679Z,59.50
2018-04-18T07:24:48.393Z,58.00
2018-04-18T07:27:16.626Z,55.90
2018-04-18T07:29:44.093Z,55.90
2018-04-18T07:32:11.566Z,57.80
2018-04-18T07:34:39.035Z,57.60
2018-04-18T07:37:06.509Z,57.10
2018-04-18T07:39:34.019Z,56.40
2018-04-18T07:42:02.235Z,56.80
2018-04-18T07:44:29.789Z,57.40
2018-04-18T07:46:57.229Z,51.30
2018-04-18T07:49:24.706Z,49.50
2018-04-18T07:51:52.146Z,47.80
2018-04-18T07:54:19.619Z,48.40
2018-04-18T07:56:47.063Z,49.30
2018-04-18T07:59:14.538Z,47.50
2018-04-18T08:01:41.993Z,46.70
2018-04-18T08:04:10.211Z,46.30
2018-04-18T08:06:37.674Z,46.30
2018-04-18T08:09:05.855Z,46.10
2018-04-18T08:11:33.297Z,47.30
2018-04-18T08:14:00.782Z,46.90
2018-04-18T08:16:28.237Z,45.40
2018-04-18T08:18:55.719Z,45.40
2018-04-18T08:21:23.929Z,42.80
2018-04-18T08:23:52.153Z,43.30
2018-04-18T08:26:19.617Z,43.20
2018-04-18T08:28:47.185Z,42.10
2018-04-18T08:31:14.631Z,41.60
2018-04-18T08:33:42.092Z,44.00
2018-04-18T08:36:09.570Z,43.30
2018-04-18T08:38:37.029Z,43.10
2018-04-18T08:41:04.496Z,42.00
2018-04-18T08:43:31.949Z,41.70
2018-04-18T08:45:59.448Z,41.40
2018-04-18T08:48:26.911Z,42.50
2018-04-18T08:50:54.465Z,40.10
2018-04-18T08:53:21.926Z,42.00
2018-04-18T08:55:49.373Z,40.80
2018-04-18T08:58:16.845Z,41.30
2018-04-18T09:00:44.325Z,40.10
2018-04-18T09:03:11.782Z,39.70
2018-04-18T09:05:39.985Z,38.40
2018-04-18T09:08:08.205Z,39.30
2018-04-18T09:10:35.662Z,39.30
2018-04-18T09:13:03.119Z,37.80
2018-04-18T09:15:30.605Z,38.20
2018-04-18T09:17:58.058Z,38.50
2018-04-18T09:20:25.538Z,38.10
2018-04-18T09:22:52.981Z,37.80
2018-04-18T09:25:20.453Z,36.90
2018-04-18T09:27:47.918Z,38.00
2018-04-18T09:30:15.385Z,37.80
2018-04-18T09:32:42.846Z,37.10
2018-04-18T09:35:10.286Z,36.70
2018-04-18T09:37:37.750Z,37.10
2018-04-18T09:40:05.211Z,37.20
2018-04-18T09:42:32.689Z,37.40
2018-04-18T09:45:00.137Z,39.00
2018-04-18T09:47:27.604Z,36.30
2018-04-18T09:49:55.069Z,36.40
2018-04-18T09:52:22.525Z,36.20
2018-04-18T09:54:49.987Z,34.70
2018-04-18T09:57:17.466Z,36.00
2018-04-18T09:59:44.914Z,35.90
2018-04-18T10:02:18.222Z,35.90
2018-04-18T10:04:45.670Z,34.60
2018-04-18T10:07:13.153Z,34.60
2018-04-18T10:09:40.620Z,35.30
2018-04-18T10:12:08.278Z,35.30
2018-04-18T10:14:35.751Z,36.50
2018-04-18T10:17:03.226Z,35.60
2018-04-18T10:19:30.670Z,35.60
2018-04-18T10:21:58.138Z,34.50
2018-04-18T10:24:25.589Z,36.00
2018-04-18T10:26:53.170Z,35.40
2018-04-18T10:29:20.610Z,34.80
2018-04-18T10:31:48.086Z,35.80
2018-04-18T10:34:15.542Z,33.20
2018-04-18T10:36:43.009Z,34.20
2018-04-18T10:39:10.465Z,34.40
2018-04-18T10:41:37.911Z,34.20
2018-04-18T10:44:05.370Z,34.70
2018-04-18T10:46:32.829Z,32.80
2018-04-18T10:49:00.295Z,33.20
2018-04-18T10:51:27.735Z,33.80
2018-04-18T10:53:55.949Z,33.60
2018-04-18T10:56:23.421Z,33.60
2018-04-18T10:58:50.870Z,33.20
2018-04-18T11:01:18.338Z,33.30
2018-04-18T11:03:45.789Z,30.80
2018-04-18T11:06:13.264Z,31.50
2018-04-18T11:08:40.723Z,33.10
2018-04-18T11:11:08.185Z,32.80
2018-04-18T11:13:35.768Z,31.20
2018-04-18T11:16:03.222Z,29.90
2018-04-18T11:18:30.701Z,30.50
2018-04-18T11:20:58.161Z,29.90
2018-04-18T11:23:25.622Z,27.90
2018-04-18T11:25:53.489Z,28.20
2018-04-18T11:28:21.046Z,27.50
2018-04-18T11:30:48.501Z,28.20
2018-04-18T11:33:15.965Z,28.80
2018-04-18T11:35:43.441Z,27.70
2018-04-18T11:38:10.895Z,27.80
2018-04-18T11:40:38.354Z,27.90
2018-04-18T11:43:05.814Z,28.80
2018-04-18T11:45:33.336Z,28.20
2018-04-18T11:48:00.730Z,28.10
2018-04-18T11:50:28.210Z,28.30
2018-04-18T11:52:55.679Z,26.50
2018-04-18T11:55:23.141Z,27.80
2018-04-18T11:57:50.705Z,27.50
2018-04-18T12:00:18.541Z,27.50
2018-04-18T12:02:46.761Z,27.90
2018-04-18T12:05:14.225Z,27.80
2018-04-18T12:07:42.078Z,28.30
2018-04-18T12:10:09.885Z,28.50
2018-04-18T12:12:37.759Z,27.80
2018-04-18T12:15:05.377Z,28.40
2018-04-18T12:17:33.061Z,29.50
2018-04-18T12:20:00.832Z,29.10
2018-04-18T12:22:28.277Z,28.50
2018-04-18T12:24:55.750Z,27.50
2018-04-18T12:27:23.205Z,28.50
2018-04-18T12:29:51.174Z,28.60
2018-04-18T12:32:18.647Z,28.80
2018-04-18T12:34:46.195Z,29.40
2018-04-18T12:37:13.677Z,29.60
2018-04-18T12:39:41.141Z,30.30
2018-04-18T12:42:08.587Z,28.80
2018-04-18T12:44:36.085Z,28.80
2018-04-18T12:47:03.542Z,30.00
2018-04-18T12:49:31.015Z,30.30
2018-04-18T12:51:58.453Z,29.60
2018-04-18T12:54:25.922Z,29.50
2018-04-18T12:56:53.393Z,29.50
2018-04-18T12:59:20.863Z,29.50
2018-04-18T13:01:48.305Z,29.50
2018-04-18T13:04:15.878Z,29.60
2018-04-18T13:06:43.334Z,29.70
2018-04-18T13:09:10.781Z,29.50
2018-04-18T13:11:38.232Z,30.40
2018-04-18T13:14:05.696Z,29.70
2018-04-18T13:16:33.142Z,30.00
2018-04-18T13:19:00.595Z,29.80
2018-04-18T13:21:28.822Z,29.50
2018-04-18T13:23:56.476Z,29.50
2018-04-18T13:26:23.906Z,29.70
2018-04-18T13:28:52.209Z,29.50
2018-04-18T13:31:19.657Z,29.40
2018-04-18T13:33:47.162Z,29.90
2018-04-18T13:36:14.639Z,29.80
2018-04-18T13:38:42.098Z,29.00
2018-04-18T13:41:09.654Z,29.70
2018-04-18T13:43:37.105Z,30.20
2018-04-18T13:46:04.916Z,29.50
2018-04-18T13:48:32.454Z,30.00
2018-04-18T13:50:59.912Z,30.50
2018-04-18T13:53:27.374Z,29.60
2018-04-18T13:55:54.814Z,29.50
2018-04-18T13:58:22.398Z,29.80
2018-04-18T14:00:49.873Z,29.60
2018-04-18T14:03:17.356Z,29.90
2018-04-18T14:05:44.818Z,30.20
2018-04-18T14:08:13.280Z,30.40
2018-04-18T14:10:40.724Z,29.50
2018-04-18T14:13:08.187Z,30.00
2018-04-18T14:15:35.662Z,30.10
2018-04-18T14:18:03.122Z,29.70
2018-04-18T14:20:30.593Z,29.90
2018-04-18T14:22:58.077Z,30.10
2018-04-18T14:25:25.621Z,30.00
2018-04-18T14:27:53.090Z,29.70
2018-04-18T14:30:20.642Z,29.80
2018-04-18T14:32:48.117Z,29.90
2018-04-18T14:35:15.557Z,30.10
2018-04-18T14:37:43.334Z,30.10
2018-04-18T14:40:11.536Z,30.80
2018-04-18T14:42:38.975Z,30.90
2018-04-18T14:45:06.433Z,31.10
2018-04-18T14:47:33.928Z,31.30
2018-04-18T14:50:01.395Z,31.10
2018-04-18T14:52:28.963Z,31.30
2018-04-18T14:54:56.499Z,30.80
2018-04-18T14:57:23.966Z,30.80
2018-04-18T14:59:51.426Z,30.90
2018-04-18T15:02:18.879Z,30.40
2018-04-18T15:04:46.370Z,30.60
2018-04-18T15:07:13.807Z,29.80
2018-04-18T15:09:41.290Z,29.90
2018-04-18T15:12:08.732Z,30.00
2018-04-18T15:14:36.298Z,29.50
2018-04-18T15:17:03.765Z,29.80
2018-04-18T15:19:31.230Z,29.00
2018-04-18T15:21:58.782Z,29.10
2018-04-18T15:24:26.257Z,28.40
2018-04-18T15:26:53.737Z,28.70
2018-04-18T15:29:21.237Z,28.90
2018-04-18T15:31:48.690Z,29.60
2018-04-18T15:34:16.173Z,28.90
2018-04-18T15:36:43.606Z,28.20
2018-04-18T15:39:11.843Z,28.70
2018-04-18T15:41:39.305Z,28.70
2018-04-18T15:44:06.861Z,28.90
2018-04-18T15:46:34.343Z,28.60
2018-04-18T15:49:01.894Z,28.00
2018-04-18T15:51:29.342Z,27.60
2018-04-18T15:53:56.811Z,27.60
2018-04-18T15:56:24.266Z,28.30
2018-04-18T15:58:51.709Z,28.00
2018-04-18T16:01:19.177Z,27.80
2018-04-18T16:03:46.679Z,28.40
2018-04-18T16:06:14.379Z,28.20
2018-04-18T16:08:42.017Z,27.90
2018-04-18T16:11:09.855Z,28.20
2018-04-18T16:13:37.950Z,28.30
2018-04-18T16:16:05.401Z,28.20
2018-04-18T16:18:32.878Z,28.30
2018-04-18T16:21:00.338Z,28.00
2018-04-18T16:23:27.810Z,28.20
2018-04-18T16:25:55.277Z,28.40
2018-04-18T16:28:22.742Z,28.20
2018-04-18T16:30:50.201Z,28.00
2018-04-18T16:33:17.757Z,28.30
2018-04-18T16:35:45.202Z,28.60
2018-04-18T16:38:12.649Z,28.50
2018-04-18T16:40:40.217Z,28.20
2018-04-18T16:43:07.833Z,28.60
2018-04-18T16:45:35.299Z,27.80
2018-04-18T16:48:03.630Z,28.60
2018-04-18T16:50:31.118Z,28.60
2018-04-18T16:52:59.306Z,27.80
2018-04-18T16:55:26.738Z,27.80
2018-04-18T16:57:54.202Z,28.00
2018-04-18T17:00:21.685Z,28.10
2018-04-18T17:02:49.245Z,28.00
2018-04-18T17:05:16.695Z,28.00
2018-04-18T17:07:44.186Z,28.10
2018-04-18T17:10:11.865Z,28.40
2018-04-18T17:12:39.333Z,28.60
2018-04-18T17:15:06.990Z,28.50
2018-04-18T17:17:34.442Z,28.60
2018-04-18T17:20:01.902Z,28.90
2018-04-18T17:22:29.435Z,29.20
2018-04-18T17:24:56.940Z,29.30
2018-04-18T17:27:24.377Z,29.40
2018-04-18T17:29:51.953Z,29.20
2018-04-18T17:32:19.385Z,29.60
2018-04-18T17:34:47.029Z,29.70
2018-04-18T17:37:15.221Z,30.50
2018-04-18T17:39:42.849Z,29.90
2018-04-18T17:42:10.286Z,30.10
2018-04-18T17:44:37.731Z,29.90
2018-04-18T17:47:05.241Z,30.00
2018-04-18T17:49:32.771Z,30.30
2018-04-18T17:52:00.207Z,30.40
2018-04-18T17:54:27.813Z,30.60
2018-04-18T17:56:55.255Z,30.80
2018-04-18T17:59:22.762Z,31.20
2018-04-18T18:01:50.357Z,31.30
2018-04-18T18:04:17.834Z,31.70
2018-04-18T18:06:45.277Z,31.50
2018-04-18T18:09:12.861Z,31.80
2018-04-18T18:11:40.301Z,32.00
2018-04-18T18:14:08.517Z,32.40
2018-04-18T18:16:35.981Z,32.40
2018-04-18T18:19:03.546Z,32.60
2018-04-18T18:21:30.993Z,32.90
2018-04-18T18:23:58.962Z,33.20
2018-04-18T18:26:26.394Z,33.40
2018-04-18T18:28:54.634Z,33.90
2018-04-18T18:31:22.168Z,33.90
2018-04-18T18:33:49.584Z,34.20
2018-04-18T18:36:17.062Z,34.20
2018-04-18T18:38:44.506Z,34.50
2018-04-18T18:41:12.570Z,35.20
2018-04-18T18:43:40.065Z,35.00
2018-04-18T18:46:08.024Z,35.00
2018-04-18T18:48:35.473Z,35.50
2018-04-18T18:51:03.022Z,35.50
2018-04-18T18:53:30.610Z,35.80
2018-04-18T18:55:58.051Z,35.70
2018-04-18T18:58:25.522Z,36.20
2018-04-18T19:00:53.070Z,36.30
2018-04-18T19:03:21.011Z,36.50
2018-04-18T19:05:49.729Z,36.70
2018-04-18T19:08:17.332Z,36.80
2018-04-18T19:10:44.794Z,37.10
2018-04-18T19:13:12.324Z,37.30
2018-04-18T19:15:39.800Z,37.50
2018-04-18T19:18:07.308Z,37.70
2018-04-18T19:20:35.521Z,38.00
2018-04-18T19:23:03.002Z,37.90
2018-04-18T19:25:30.465Z,38.10
2018-04-18T19:27:57.938Z,38.40
2018-04-18T19:30:25.426Z,38.50
2018-04-18T19:32:52.866Z,38.80
2018-04-18T19:35:20.331Z,38.80
2018-04-18T19:37:47.781Z,38.80
2018-04-18T19:40:15.229Z,39.00
2018-04-18T19:42:42.697Z,39.20
2018-04-18T19:45:10.162Z,39.40
2018-04-18T19:47:37.618Z,39.60
2018-04-18T19:50:05.085Z,39.70
2018-04-18T19:52:32.548Z,39.70
2018-04-18T19:55:00.000Z,39.80
2018-04-18T19:57:27.457Z,40.20
2018-04-18T19:59:54.908Z,40.20
2018-04-18T20:02:22.385Z,40.30
2018-04-18T20:04:49.881Z,40.60
2018-04-18T20:07:17.314Z,40.70
2018-04-18T20:09:44.865Z,41.00
2018-04-18T20:12:12.347Z,40.90
2018-04-18T20:14:39.805Z,41.20
2018-04-18T20:17:07.266Z,41.30
2018-04-18T20:19:34.747Z,41.50
2018-04-18T20:22:02.310Z,41.70
2018-04-18T20:24:29.745Z,42.00
2018-04-18T20:26:57.221Z,42.30
2018-04-18T20:29:24.667Z,42.80
2018-04-18T20:31:52.229Z,43.00
2018-04-18T20:34:19.671Z,43.10
2018-04-18T20:36:50.603Z,43.30
2018-04-18T20:39:18.845Z,43.50
2018-04-18T20:42:01.190Z,43.50
2018-04-18T20:44:29.495Z,44.20
2018-04-18T20:46:56.933Z,44.10
2018-04-18T20:49:25.256Z,44.10
2018-04-18T20:51:52.707Z,44.10
2018-04-18T20:54:20.169Z,44.00
2018-04-18T20:56:47.702Z,44.40
2018-04-18T20:59:15.910Z,44.30
2018-04-18T21:01:43.410Z,44.20
2018-04-18T21:04:10.851Z,44.00
2018-04-18T21:06:38.377Z,43.80
2018-04-18T21:09:06.681Z,44.60
2018-04-18T21:11:34.167Z,44.50
2018-04-18T21:14:01.738Z,45.00
2018-04-18T21:16:29.204Z,44.80
2018-04-18T21:18:56.657Z,45.30
2018-04-18T21:21:24.126Z,45.30
2018-04-18T21:23:51.576Z,45.40
2018-04-18T21:26:19.038Z,45.90
2018-04-18T21:28:46.514Z,45.70
2018-04-18T21:31:13.961Z,46.20
2018-04-18T21:33:41.423Z,46.10
2018-04-18T21:36:08.867Z,46.30
2018-04-18T21:38:36.330Z,46.50
2018-04-18T21:41:03.791Z,46.70
2018-04-18T21:43:31.289Z,46.80
2018-04-18T21:45:58.741Z,46.80
2018-04-18T21:48:26.307Z,46.30
2018-04-18T21:50:53.782Z,46.60
2018-04-18T21:53:21.260Z,47.40
2018-04-18T21:55:48.696Z,46.40
2018-04-18T21:58:16.161Z,46.20
2018-04-18T22:00:43.612Z,46.70
2018-04-18T22:03:11.074Z,46.60
2018-04-18T22:05:38.530Z,46.20
2018-04-18T22:08:05.978Z,46.80
2018-04-18T22:10:33.632Z,47.10
2018-04-18T22:13:01.857Z,46.80
2018-04-18T22:15:29.327Z,46.80
2018-04-18T22:17:56.883Z,47.50
2018-04-18T22:20:24.343Z,47.30
2018-04-18T22:22:51.777Z,48.10
2018-04-18T22:25:19.279Z,47.50
2018-04-18T22:27:46.735Z,47.30
2018-04-18T22:30:14.337Z,47.80
2018-04-18T22:32:42.581Z,48.20
2018-04-18T22:35:10.048Z,48.20
2018-04-18T22:37:37.505Z,47.90
2018-04-18T22:40:04.972Z,47.80
2018-04-18T22:42:32.437Z,48.40
2018-04-18T22:44:59.897Z,48.90
2018-04-18T22:47:27.349Z,48.30
2018-04-18T22:49:54.913Z,49.20
2018-04-18T22:52:22.386Z,49.30
2018-04-18T22:54:49.830Z,50.30
2018-04-18T22:57:17.308Z,49.80
2018-04-18T22:59:44.766Z,50.10
2018-04-18T23:02:12.235Z,50.00
2018-04-18T23:04:39.702Z,49.70
2018-04-18T23:07:07.146Z,49.90
2018-04-18T23:09:34.624Z,50.30
2018-04-18T23:12:02.090Z,50.60
2018-04-18T23:14:29.559Z,50.30
2018-04-18T23:16:57.016Z,50.60
2018-04-18T23:19:24.479Z,50.30
2018-04-18T23:21:51.940Z,51.00
2018-04-18T23:24:19.408Z,50.10
2018-04-18T23:26:46.882Z,51.00
2018-04-18T23:29:14.369Z,51.30
2018-04-18T23:31:42.575Z,51.40
2018-04-18T23:34:10.065Z,51.30
2018-04-18T23:36:37.535Z,51.40
2018-04-18T23:39:05.773Z,52.00
2018-04-18T23:41:33.211Z,51.80
2018-04-18T23:44:00.783Z,51.60
2018-04-18T23:46:28.990Z,52.20
2018-04-18T23:48:56.469Z,52.20
2018-04-18T23:51:23.913Z,52.30
2018-04-18T23:53:51.733Z,53.20
2018-04-18T23:56:19.274Z,52.60
2018-04-18T23:58:46.722Z,53.10
